createdAt,value
2018-06-17T00:01:33.970Z,22.13
2018-06-17T00:04:02.651Z,21.23
2018-06-17T00:06:31.441Z,21.90
2018-06-17T00:09:00.151Z,22.50
2018-06-17T00:11:28.756Z,24.40
2018-06-17T00:13:57.474Z,25.17
2018-06-17T00:16:26.399Z,25.37
2018-06-17T00:18:55.535Z,24.00
2018-06-17T00:21:24.272Z,25.00
2018-06-17T00:23:53.196Z,24.83
2018-06-17T00:26:21.900Z,22.50
2018-06-17T00:28:50.641Z,23.57
2018-06-17T00:31:19.576Z,25.87
2018-06-17T00:33:48.562Z,21.17
2018-06-17T00:36:17.241Z,22.00
2018-06-17T00:38:46.108Z,21.83
2018-06-17T00:41:14.912Z,24.67
2018-06-17T00:43:43.962Z,24.30
2018-06-17T00:46:12.838Z,23.13
2018-06-17T00:48:41.748Z,22.20
2018-06-17T00:51:10.648Z,24.23
2018-06-17T00:53:39.401Z,25.70
2018-06-17T00:56:08.215Z,26.77
2018-06-17T00:58:36.951Z,26.97
2018-06-17T01:01:05.620Z,26.37
2018-06-17T01:03:34.500Z,28.13
2018-06-17T01:06:03.374Z,27.00
2018-06-17T01:08:32.235Z,25.27
2018-06-17T01:11:01.346Z,26.87
2018-06-17T01:13:30.042Z,26.43
2018-06-17T01:15:58.953Z,30.57
2018-06-17T01:18:27.667Z,28.67
2018-06-17T01:20:56.488Z,28.43
2018-06-17T01:23:25.289Z,27.80
2018-06-17T01:25:54.130Z,28.07
2018-06-17T01:28:22.910Z,31.63
2018-06-17T01:30:51.665Z,31.97
2018-06-17T01:33:20.433Z,30.73
2018-06-17T01:35:49.375Z,31.87
2018-06-17T01:38:18.009Z,32.10
2018-06-17T01:40:47.095Z,32.53
2018-06-17T01:43:15.893Z,31.53
2018-06-17T01:45:44.722Z,31.83
2018-06-17T01:48:13.554Z,31.13
2018-06-17T01:50:42.373Z,32.00
2018-06-17T01:53:11.143Z,32.33
2018-06-17T01:55:40.005Z,34.20
2018-06-17T01:58:08.768Z,38.73
2018-06-17T02:00:37.736Z,30.80
2018-06-17T02:03:11.640Z,33.43
2018-06-17T02:07:51.673Z,31.20
2018-06-17T02:10:25.609Z,29.50
2018-06-17T02:12:54.394Z,28.77
2018-06-17T02:15:23.184Z,29.50
2018-06-17T02:17:51.926Z,30.33
2018-06-17T02:20:20.586Z,29.47
2018-06-17T02:22:49.632Z,30.47
2018-06-17T02:25:18.392Z,29.87
2018-06-17T02:27:47.114Z,28.60
2018-06-17T02:30:16.238Z,23.10
2018-06-17T02:32:44.965Z,25.03
2018-06-17T02:35:13.722Z,27.37
2018-06-17T02:37:42.321Z,27.67
2018-06-17T02:40:11.052Z,23.93
2018-06-17T02:42:39.772Z,25.37
2018-06-17T02:45:13.808Z,24.63
2018-06-17T02:47:47.709Z,24.50
2018-06-17T02:50:21.604Z,23.77
2018-06-17T02:52:55.597Z,24.67
2018-06-17T02:55:24.520Z,25.13
2018-06-17T02:57:53.458Z,25.57
2018-06-17T03:00:22.117Z,26.07
2018-06-17T03:02:51.049Z,27.50
2018-06-17T03:05:20.215Z,23.90
2018-06-17T03:07:49.180Z,25.23
2018-06-17T03:10:18.098Z,25.23
2018-06-17T03:12:46.925Z,22.93
2018-06-17T03:15:15.693Z,22.50
2018-06-17T03:17:44.536Z,22.30
2018-06-17T03:20:13.362Z,22.47
2018-06-17T03:22:42.237Z,22.13
2018-06-17T03:25:16.346Z,24.53
2018-06-17T03:27:50.297Z,20.77
2018-06-17T03:30:25.096Z,21.13
2018-06-17T03:32:58.949Z,24.87
2018-06-17T03:35:32.871Z,21.33
2018-06-17T03:38:02.089Z,22.07
2018-06-17T03:40:30.768Z,22.77
2018-06-17T03:42:59.609Z,21.10
2018-06-17T03:45:28.369Z,20.60
2018-06-17T03:47:57.035Z,21.90
2018-06-17T03:50:26.053Z,21.90
2018-06-17T03:52:54.895Z,23.00
2018-06-17T03:55:23.776Z,22.93
2018-06-17T03:57:52.736Z,22.60
2018-06-17T04:00:21.617Z,24.50
2018-06-17T04:02:50.552Z,26.37
2018-06-17T04:05:24.692Z,23.23
2018-06-17T04:07:53.445Z,21.80
2018-06-17T04:10:22.334Z,22.47
2018-06-17T04:12:51.197Z,19.77
2018-06-17T04:15:20.137Z,19.50
2018-06-17T04:17:48.920Z,20.60
2018-06-17T04:20:17.460Z,18.93
2018-06-17T04:22:45.981Z,21.67
2018-06-17T04:25:14.475Z,21.00
2018-06-17T04:27:43.026Z,22.13
2018-06-17T04:30:11.626Z,22.53
2018-06-17T04:32:41.274Z,20.43
2018-06-17T04:35:09.862Z,21.00
2018-06-17T04:37:38.383Z,21.50
2018-06-17T04:40:06.970Z,21.07
2018-06-17T04:42:35.525Z,21.57
2018-06-17T04:45:04.026Z,24.90
2018-06-17T04:47:32.589Z,20.10
2018-06-17T04:50:01.169Z,21.17
2018-06-17T04:52:29.673Z,20.10
2018-06-17T04:54:58.182Z,19.43
2018-06-17T04:57:26.724Z,23.30
2018-06-17T04:59:55.305Z,20.13
2018-06-17T05:02:23.930Z,17.10
2018-06-17T05:04:52.618Z,16.03
2018-06-17T05:07:21.125Z,19.10
2018-06-17T05:09:49.653Z,16.13
2018-06-17T05:12:18.218Z,16.83
2018-06-17T05:14:46.871Z,15.77
2018-06-17T05:17:15.410Z,22.83
2018-06-17T05:19:44.264Z,17.17
2018-06-17T05:22:13.287Z,17.23
2018-06-17T05:24:41.812Z,17.70
2018-06-17T05:27:10.375Z,17.03
2018-06-17T05:29:38.956Z,16.67
2018-06-17T05:32:07.656Z,16.70
2018-06-17T05:34:36.234Z,18.57
2018-06-17T05:37:04.814Z,19.87
2018-06-17T05:39:33.362Z,14.17
2018-06-17T05:42:01.935Z,15.13
2018-06-17T05:44:30.476Z,14.67
2018-06-17T05:46:59.038Z,15.67
2018-06-17T05:49:27.597Z,13.20
2018-06-17T05:51:56.153Z,13.53
2018-06-17T05:54:24.703Z,13.40
2018-06-17T05:57:09.406Z,12.10
2018-06-17T05:59:43.743Z,12.80
2018-06-17T06:02:13.764Z,11.50
2018-06-17T06:07:37.387Z,14.63
2018-06-17T06:10:06.134Z,14.20
2018-06-17T06:12:34.699Z,14.80
2018-06-17T06:15:03.341Z,16.97
2018-06-17T06:17:31.925Z,14.33
2018-06-17T06:20:00.525Z,13.73
2018-06-17T06:22:29.108Z,14.17
2018-06-17T06:24:57.666Z,13.03
2018-06-17T06:27:26.218Z,12.50
2018-06-17T06:29:54.843Z,12.33
2018-06-17T06:32:23.488Z,11.73
2018-06-17T06:34:52.040Z,12.30
2018-06-17T06:37:20.656Z,11.20
2018-06-17T06:39:49.184Z,10.17
2018-06-17T06:42:17.772Z,10.58
2018-06-17T06:44:46.421Z,11.40
2018-06-17T06:47:15.018Z,8.83
2018-06-17T06:49:43.601Z,9.75
2018-06-17T06:52:12.210Z,11.88
2018-06-17T06:54:40.726Z,10.93
2018-06-17T06:57:09.529Z,9.18
2018-06-17T06:59:38.112Z,15.88
2018-06-17T07:02:17.866Z,10.13
2018-06-17T07:05:04.687Z,9.15
2018-06-17T07:07:45.975Z,10.57
2018-06-17T07:10:24.568Z,11.07
2018-06-17T07:12:54.009Z,9.73
2018-06-17T07:15:35.107Z,10.33
2018-06-17T07:18:15.764Z,10.73
2018-06-17T07:20:45.534Z,10.43
2018-06-17T07:23:15.337Z,10.07
2018-06-17T07:26:55.176Z,8.47
2018-06-17T07:29:36.592Z,13.03
2018-06-17T07:32:05.887Z,9.17
2018-06-17T07:34:35.265Z,12.63
2018-06-17T07:37:04.119Z,8.77
2018-06-17T07:41:41.629Z,10.17
2018-06-17T07:44:11.275Z,12.13
2018-06-17T07:46:39.820Z,7.93
2018-06-17T07:49:58.940Z,9.20
2018-06-17T07:52:38.936Z,9.23
2018-06-17T07:55:07.551Z,7.83
2018-06-17T07:57:36.094Z,7.70
2018-06-17T08:00:04.740Z,7.27
2018-06-17T08:02:33.281Z,7.40
2018-06-17T08:05:01.806Z,8.53
2018-06-17T08:07:30.376Z,11.50
2018-06-17T08:09:58.959Z,10.37
2018-06-17T08:12:27.463Z,6.07
2018-06-17T08:14:56.088Z,6.23
2018-06-17T08:17:24.686Z,6.90
2018-06-17T08:19:53.268Z,6.05
2018-06-17T08:22:21.767Z,10.63
2018-06-17T08:24:50.353Z,5.00
2018-06-17T08:27:19.358Z,8.30
2018-06-17T08:29:48.642Z,6.70
2018-06-17T08:32:21.395Z,7.07
2018-06-17T08:34:50.203Z,4.60
2018-06-17T08:37:18.712Z,9.33
2018-06-17T08:39:47.288Z,10.33
2018-06-17T08:42:15.975Z,4.90
2018-06-17T08:44:44.481Z,6.47
2018-06-17T08:47:13.293Z,8.40
2018-06-17T08:49:41.914Z,4.43
2018-06-17T08:52:10.737Z,7.23
2018-06-17T08:54:39.599Z,5.13
2018-06-17T08:57:08.588Z,5.40
2018-06-17T08:59:37.322Z,5.87
2018-06-17T09:02:06.379Z,6.03
2018-06-17T09:04:35.328Z,7.20
2018-06-17T09:07:04.220Z,7.08
2018-06-17T09:09:32.923Z,7.47
2018-06-17T09:12:01.938Z,6.15
2018-06-17T09:14:30.560Z,4.95
2018-06-17T09:16:59.111Z,5.72
2018-06-17T09:19:27.874Z,5.12
2018-06-17T09:21:56.783Z,5.10
2018-06-17T09:24:25.591Z,7.05
2018-06-17T09:26:54.203Z,4.90
2018-06-17T09:29:22.785Z,7.37
2018-06-17T09:31:51.451Z,6.17
2018-06-17T09:34:19.897Z,3.83
2018-06-17T09:36:48.425Z,6.50
2018-06-17T09:39:17.584Z,7.47
2018-06-17T09:41:46.751Z,4.97
2018-06-17T09:44:15.628Z,7.87
2018-06-17T09:46:44.193Z,4.50
2018-06-17T09:49:12.788Z,5.33
2018-06-17T09:51:41.300Z,4.72
2018-06-17T09:54:09.854Z,5.67
2018-06-17T09:56:38.353Z,5.37
2018-06-17T09:59:06.901Z,4.70
2018-06-17T10:01:35.505Z,3.40
2018-06-17T10:04:04.011Z,7.60
2018-06-17T10:06:32.565Z,5.45
2018-06-17T10:09:01.174Z,4.30
2018-06-17T10:11:29.724Z,5.67
2018-06-17T10:13:58.227Z,4.28
2018-06-17T10:16:26.796Z,3.37
2018-06-17T10:18:55.380Z,6.67
2018-06-17T10:21:24.640Z,3.22
2018-06-17T10:23:53.166Z,4.92
2018-06-17T10:26:21.679Z,7.12
2018-06-17T10:28:50.275Z,7.97
2018-06-17T10:31:18.865Z,5.90
2018-06-17T10:33:47.783Z,3.87
2018-06-17T10:36:16.404Z,3.62
2018-06-17T10:38:45.037Z,3.05
2018-06-17T10:41:13.569Z,5.40
2018-06-17T10:43:42.083Z,3.80
2018-06-17T10:46:10.610Z,4.22
2018-06-17T10:48:39.131Z,5.53
2018-06-17T10:51:07.677Z,5.20
2018-06-17T10:53:39.026Z,4.70
2018-06-17T10:56:10.483Z,5.15
2018-06-17T10:58:40.807Z,4.80
2018-06-17T11:01:10.060Z,6.05
2018-06-17T11:03:38.639Z,7.83
2018-06-17T11:06:07.346Z,4.65
2018-06-17T11:08:35.923Z,5.60
2018-06-17T11:11:04.416Z,6.37
2018-06-17T11:13:34.229Z,7.10
2018-06-17T11:16:02.798Z,6.75
2018-06-17T11:18:31.477Z,7.97
2018-06-17T11:21:00.000Z,8.70
2018-06-17T11:23:28.524Z,7.00
2018-06-17T11:25:57.089Z,3.97
2018-06-17T11:28:25.633Z,5.30
2018-06-17T11:30:54.193Z,5.65
2018-06-17T11:33:22.713Z,3.67
2018-06-17T11:35:51.293Z,4.90
2018-06-17T11:38:19.808Z,5.40
2018-06-17T11:40:48.484Z,4.70
2018-06-17T11:43:17.043Z,9.17
2018-06-17T11:45:45.633Z,5.50
2018-06-17T11:48:14.247Z,9.20
2018-06-17T11:50:42.811Z,8.13
2018-06-17T11:53:11.429Z,6.10
2018-06-17T11:55:39.950Z,4.23
2018-06-17T11:58:09.081Z,7.77
2018-06-17T12:00:37.744Z,6.67
2018-06-17T12:03:06.253Z,6.67
2018-06-17T12:05:34.841Z,4.87
2018-06-17T12:08:03.394Z,4.03
2018-06-17T12:10:31.919Z,6.13
2018-06-17T12:13:00.523Z,5.77
2018-06-17T12:15:29.070Z,11.57
2018-06-17T12:17:57.633Z,7.50
2018-06-17T12:20:26.176Z,5.10
2018-06-17T12:22:54.711Z,10.17
2018-06-17T12:25:23.280Z,12.63
2018-06-17T12:27:51.856Z,9.83
2018-06-17T12:30:20.401Z,8.10
2018-06-17T12:32:48.941Z,6.23
2018-06-17T12:35:17.525Z,7.07
2018-06-17T12:37:46.119Z,5.17
2018-06-17T12:40:14.657Z,6.13
2018-06-17T12:42:43.214Z,5.73
2018-06-17T12:45:11.746Z,6.27
2018-06-17T12:47:40.317Z,7.77
2018-06-17T12:50:08.884Z,7.03
2018-06-17T12:52:37.432Z,6.30
2018-06-17T12:55:06.071Z,4.30
2018-06-17T12:57:34.647Z,7.37
2018-06-17T13:00:03.229Z,5.10
2018-06-17T13:02:31.759Z,7.67
2018-06-17T13:05:00.337Z,4.00
2018-06-17T13:07:28.843Z,3.77
2018-06-17T13:09:57.373Z,6.30
2018-06-17T13:12:25.936Z,4.87
2018-06-17T13:14:54.442Z,6.90
2018-06-17T13:17:22.996Z,6.10
2018-06-17T13:19:51.572Z,5.20
2018-06-17T13:22:20.161Z,7.63
2018-06-17T13:24:48.689Z,9.17
2018-06-17T13:27:17.225Z,4.90
2018-06-17T13:29:45.813Z,4.73
2018-06-17T13:32:14.667Z,9.77
2018-06-17T13:34:43.289Z,7.53
2018-06-17T13:37:12.026Z,5.63
2018-06-17T13:39:40.598Z,8.07
2018-06-17T13:42:09.186Z,6.83
2018-06-17T13:44:37.699Z,9.53
2018-06-17T13:47:06.441Z,10.30
2018-06-17T13:49:34.993Z,8.07
2018-06-17T13:52:03.558Z,6.10
2018-06-17T13:54:32.156Z,11.77
2018-06-17T13:57:00.703Z,7.27
2018-06-17T13:59:29.255Z,7.73
2018-06-17T14:01:57.776Z,6.33
2018-06-17T14:04:26.321Z,8.77
2018-06-17T14:06:54.885Z,6.50
2018-06-17T14:09:23.428Z,4.67
2018-06-17T14:11:51.987Z,6.57
2018-06-17T14:14:20.542Z,6.13
2018-06-17T14:16:49.132Z,4.23
2018-06-17T14:19:17.730Z,4.77
2018-06-17T14:21:46.288Z,7.63
2018-06-17T14:24:15.093Z,5.70
2018-06-17T14:26:43.682Z,8.20
2018-06-17T14:29:12.219Z,6.07
2018-06-17T14:31:40.741Z,5.80
2018-06-17T14:34:09.287Z,6.57
2018-06-17T14:36:37.902Z,6.40
2018-06-17T14:39:09.090Z,5.33
2018-06-17T14:41:37.637Z,6.63
2018-06-17T14:44:11.592Z,3.67
2018-06-17T14:46:45.487Z,6.70
2018-06-17T14:49:19.341Z,4.93
2018-06-17T14:51:53.166Z,3.73
2018-06-17T14:54:21.864Z,5.73
2018-06-17T14:56:50.399Z,6.00
2018-06-17T14:59:18.997Z,7.03
2018-06-17T15:01:47.574Z,5.40
2018-06-17T15:04:16.148Z,6.03
2018-06-17T15:06:44.642Z,6.57
2018-06-17T15:09:13.182Z,6.43
2018-06-17T15:11:41.682Z,4.17
2018-06-17T15:14:10.197Z,6.83
2018-06-17T15:16:38.807Z,6.00
2018-06-17T15:19:07.385Z,4.07
2018-06-17T15:21:35.947Z,3.67
2018-06-17T15:24:04.570Z,4.93
2018-06-17T15:26:33.343Z,4.30
2018-06-17T15:29:01.989Z,4.07
2018-06-17T15:31:35.913Z,8.67
2018-06-17T15:34:09.790Z,4.47
2018-06-17T15:36:43.728Z,8.73
2018-06-17T15:39:17.625Z,6.93
2018-06-17T15:41:47.172Z,5.00
2018-06-17T15:44:15.825Z,6.20
2018-06-17T15:46:44.460Z,4.63
2018-06-17T15:49:13.075Z,5.90
2018-06-17T15:51:41.613Z,4.50
2018-06-17T15:54:10.204Z,3.53
2018-06-17T15:56:38.842Z,6.30
2018-06-17T15:59:07.783Z,4.67
2018-06-17T16:01:37.075Z,5.83
2018-06-17T16:04:06.494Z,5.90
2018-06-17T16:06:35.480Z,6.17
2018-06-17T16:09:06.468Z,6.43
2018-06-17T16:11:38.112Z,5.77
2018-06-17T16:15:13.541Z,4.70
2018-06-17T16:17:47.334Z,4.40
2018-06-17T16:20:21.234Z,4.33
2018-06-17T16:22:49.818Z,6.40
2018-06-17T16:25:18.408Z,5.33
2018-06-17T16:27:47.089Z,6.83
2018-06-17T16:30:15.640Z,6.07
2018-06-17T16:32:44.226Z,4.70
2018-06-17T16:35:13.497Z,4.20
2018-06-17T16:37:42.073Z,6.10
2018-06-17T16:40:10.779Z,5.90
2018-06-17T16:42:39.321Z,3.73
2018-06-17T16:45:08.053Z,4.40
2018-06-17T16:47:36.661Z,5.40
2018-06-17T16:50:05.449Z,8.27
2018-06-17T16:52:39.330Z,6.53
2018-06-17T16:55:13.219Z,7.20
2018-06-17T16:57:46.980Z,5.27
2018-06-17T17:00:19.131Z,7.90
2018-06-17T17:02:48.244Z,6.20
2018-06-17T17:05:17.112Z,6.80
2018-06-17T17:07:45.923Z,6.07
2018-06-17T17:10:14.425Z,5.37
2018-06-17T17:12:42.928Z,9.00
2018-06-17T17:15:11.495Z,6.93
2018-06-17T17:17:40.035Z,7.30
2018-06-17T17:20:08.574Z,6.10
2018-06-17T17:22:37.185Z,4.03
2018-06-17T17:25:05.702Z,7.17
2018-06-17T17:27:34.212Z,3.60
2018-06-17T17:30:02.767Z,4.80
2018-06-17T17:32:36.577Z,5.77
2018-06-17T17:35:10.486Z,3.93
2018-06-17T17:37:44.276Z,5.67
2018-06-17T17:40:18.184Z,5.67
2018-06-17T17:42:46.689Z,9.60
2018-06-17T17:45:23.916Z,6.73
2018-06-17T17:47:52.450Z,5.43
2018-06-17T17:50:21.001Z,4.57
2018-06-17T17:52:49.554Z,4.17
2018-06-17T17:55:18.285Z,5.73
2018-06-17T17:57:47.575Z,4.93
2018-06-17T18:00:16.548Z,4.83
2018-06-17T18:02:45.498Z,5.87
2018-06-17T18:05:14.341Z,5.60
2018-06-17T18:07:43.029Z,5.60
2018-06-17T18:10:11.734Z,4.87
2018-06-17T18:12:40.474Z,4.77
2018-06-17T18:15:09.154Z,6.23
2018-06-17T18:17:39.153Z,5.23
2018-06-17T18:20:09.503Z,4.63
2018-06-17T18:22:39.451Z,6.73
2018-06-17T18:25:13.452Z,6.47
2018-06-17T18:27:47.255Z,5.77
2018-06-17T18:30:21.173Z,4.17
2018-06-17T18:32:56.006Z,4.73
2018-06-17T18:35:29.985Z,6.37
2018-06-17T18:38:00.747Z,9.43
2018-06-17T18:40:29.745Z,4.00
2018-06-17T18:42:58.391Z,4.67
2018-06-17T18:45:27.195Z,5.10
2018-06-17T18:47:55.857Z,6.30
2018-06-17T18:50:24.582Z,7.50
2018-06-17T18:52:53.205Z,7.50
2018-06-17T18:55:22.007Z,3.47
2018-06-17T18:57:50.730Z,8.97
2018-06-17T19:00:19.512Z,5.60
2018-06-17T19:02:48.609Z,4.53
2018-06-17T19:05:17.706Z,5.53
2018-06-17T19:07:47.016Z,6.63
2018-06-17T19:10:21.404Z,5.87
2018-06-17T19:12:55.565Z,6.47
2018-06-17T19:15:29.471Z,6.87
2018-06-17T19:18:09.786Z,5.30
2018-06-17T19:20:39.966Z,6.20
2018-06-17T19:23:08.651Z,6.43
2018-06-17T19:25:38.081Z,7.77
2018-06-17T19:28:07.793Z,5.27
2018-06-17T19:30:36.467Z,4.77
2018-06-17T19:33:05.294Z,4.87
2018-06-17T19:35:34.815Z,7.37
2018-06-17T19:38:03.632Z,6.93
2018-06-17T19:40:32.836Z,6.70
2018-06-17T19:43:02.096Z,6.07
2018-06-17T19:45:31.675Z,4.70
2018-06-17T19:48:00.598Z,4.93
2018-06-17T19:50:35.134Z,6.17
2018-06-17T19:53:09.283Z,5.97
2018-06-17T19:55:43.539Z,4.10
2018-06-17T19:58:18.418Z,4.17
2018-06-17T20:00:49.749Z,6.33
2018-06-17T20:03:18.468Z,5.33
2018-06-17T20:05:47.827Z,6.30
2018-06-17T20:08:17.272Z,8.53
2018-06-17T20:10:46.302Z,7.77
2018-06-17T20:13:15.162Z,6.90
2018-06-17T20:15:44.206Z,4.13
2018-06-17T20:18:13.148Z,8.70
2018-06-17T20:20:41.951Z,5.63
2018-06-17T20:23:10.946Z,7.90
2018-06-17T20:25:39.792Z,6.67
2018-06-17T20:28:08.719Z,8.43
2018-06-17T20:30:37.548Z,6.10
2018-06-17T20:33:11.669Z,6.53
2018-06-17T20:35:45.538Z,6.27
2018-06-17T20:38:19.783Z,5.47
2018-06-17T20:40:54.052Z,7.50
2018-06-17T20:43:28.241Z,8.17
2018-06-17T20:45:57.507Z,5.00
2018-06-17T20:48:26.329Z,11.20
2018-06-17T20:50:55.022Z,6.73
2018-06-17T20:53:23.885Z,4.30
2018-06-17T20:55:52.856Z,6.23
2018-06-17T20:58:21.555Z,5.93
2018-06-17T21:00:50.236Z,11.13
2018-06-17T21:03:18.888Z,9.70
2018-06-17T21:05:47.793Z,5.17
2018-06-17T21:08:16.517Z,4.43
2018-06-17T21:10:45.286Z,6.47
2018-06-17T21:13:14.147Z,6.73
2018-06-17T21:15:42.767Z,7.87
2018-06-17T21:18:11.573Z,6.37
2018-06-17T21:20:45.238Z,6.87
2018-06-17T21:23:19.110Z,6.43
2018-06-17T21:25:52.895Z,8.97
2018-06-17T21:28:21.606Z,6.17
2018-06-17T21:30:50.257Z,6.77
2018-06-17T21:33:19.074Z,9.00
2018-06-17T21:35:47.674Z,6.33
2018-06-17T21:38:16.370Z,8.93
2018-06-17T21:40:45.049Z,6.30
2018-06-17T21:43:13.706Z,9.87
2018-06-17T21:45:42.340Z,6.37
2018-06-17T21:48:11.122Z,6.67
2018-06-17T21:50:39.862Z,8.97
2018-06-17T21:53:08.465Z,6.57
2018-06-17T21:55:37.415Z,6.43
2018-06-17T21:58:06.462Z,6.63
2018-06-17T22:00:35.174Z,5.50
2018-06-17T22:03:03.988Z,7.30
2018-06-17T22:05:32.584Z,7.83
2018-06-17T22:08:06.519Z,4.60
2018-06-17T22:10:40.564Z,6.97
2018-06-17T22:13:09.491Z,5.73
2018-06-17T22:15:43.367Z,6.80
2018-06-17T22:18:12.133Z,8.07
2018-06-17T22:20:40.660Z,10.10
2018-06-17T22:23:09.199Z,7.03
2018-06-17T22:25:37.757Z,8.87
2018-06-17T22:28:06.293Z,10.20
2018-06-17T22:30:34.863Z,5.20
2018-06-17T22:33:03.401Z,7.20
2018-06-17T22:35:31.934Z,5.97
2018-06-17T22:38:00.441Z,7.40
2018-06-17T22:40:29.109Z,6.93
2018-06-17T22:42:57.677Z,8.47
2018-06-17T22:45:26.183Z,6.13
2018-06-17T22:47:59.729Z,7.77
2018-06-17T22:50:28.571Z,7.30
2018-06-17T22:53:08.272Z,9.23
2018-06-17T22:55:36.909Z,6.87
2018-06-17T22:58:10.578Z,7.13
2018-06-17T23:00:44.483Z,11.47
2018-06-17T23:03:18.333Z,7.77
2018-06-17T23:05:52.049Z,5.17
2018-06-17T23:08:25.873Z,5.60
2018-06-17T23:10:54.403Z,10.83
2018-06-17T23:13:22.999Z,7.17
2018-06-17T23:15:51.537Z,8.37
2018-06-17T23:18:20.065Z,6.93
2018-06-17T23:20:48.606Z,7.50
2018-06-17T23:23:17.238Z,10.20
2018-06-17T23:25:45.816Z,8.77
2018-06-17T23:28:14.512Z,7.60
2018-06-17T23:30:43.124Z,9.03
2018-06-17T23:33:11.682Z,5.50
2018-06-17T23:35:40.765Z,6.97
2018-06-17T23:38:09.375Z,5.63
2018-06-17T23:40:38.017Z,9.30
2018-06-17T23:43:06.731Z,7.87
2018-06-17T23:45:35.490Z,7.40
2018-06-17T23:48:09.305Z,10.47
2018-06-17T23:50:43.020Z,9.47
2018-06-17T23:55:24.451Z,7.13
2018-06-17T23:57:53.049Z,9.27
